Time;durP1;ratioP1;P1;durP2;ratioP2;P2;SDS_P1;SDS_P2;PMS_P1;PMS_P2;Temp;Humidity;BMP_temperature;BMP_pressure;BME280_temperature;BME280_humidity;BME280_pressure;Samples;Min_cycle;Max_cycle;Signal;HPM_P1;HPM_P2
2022/04/08 00:00:13;;;;;;;;;;;11.00;75.70;;;;;;5078240;28;19916;-70
2022/04/08 00:02:39;;;;;;;;;;;11.00;76.40;;;;;;5077508;28;20436;-70
2022/04/08 00:05:06;;;;;;;;;;;11.00;76.40;;;;;;5078113;28;19913;-70
2022/04/08 00:07:32;;;;;;;;;;;11.00;76.40;;;;;;5077761;28;19909;-70
2022/04/08 00:09:58;;;;;;;;;;;11.00;76.60;;;;;;5078374;28;19914;-70
2022/04/08 00:12:23;;;;;;;;;;;10.90;76.80;;;;;;5077644;28;19999;-70
2022/04/08 00:14:49;;;;;;;;;;;10.90;77.00;;;;;;5078010;28;19966;-70
2022/04/08 00:17:14;;;;;;;;;;;10.90;77.00;;;;;;5058986;28;20330;-70
2022/04/08 00:19:40;;;;;;;;;;;10.90;77.30;;;;;;5077651;28;19909;-70
2022/04/08 00:22:06;;;;;;;;;;;10.80;77.60;;;;;;5059643;28;19909;-70
2022/04/08 00:24:32;;;;;;;;;;;10.80;76.90;;;;;;5059606;28;19920;-70
2022/04/08 00:26:57;;;;;;;;;;;10.80;77.50;;;;;;5077222;28;19963;-70
2022/04/08 00:29:23;;;;;;;;;;;10.80;77.80;;;;;;5059850;28;19912;-70
2022/04/08 00:31:50;;;;;;;;;;;10.80;77.80;;;;;;5077233;28;20438;-70
2022/04/08 00:34:16;;;;;;;;;;;10.80;78.10;;;;;;5077554;28;19909;-70
2022/04/08 00:36:41;;;;;;;;;;;10.70;78.00;;;;;;5077624;28;19914;-70
2022/04/08 00:39:11;;;;;;;;;;;10.70;78.20;;;;;;5059396;28;20374;-70
2022/04/08 00:41:37;;;;;;;;;;;10.70;78.40;;;;;;5059594;28;19909;-70
2022/04/08 00:44:03;;;;;;;;;;;10.70;78.80;;;;;;5077489;28;20011;-70
2022/04/08 00:46:29;;;;;;;;;;;10.70;79.10;;;;;;5077666;28;19948;-71
2022/04/08 00:48:54;;;;;;;;;;;10.70;79.10;;;;;;5077321;28;20383;-70
2022/04/08 00:51:21;;;;;;;;;;;10.70;79.00;;;;;;5059355;28;19908;-70
2022/04/08 00:53:47;;;;;;;;;;;10.70;79.50;;;;;;5077667;28;20011;-70
2022/04/08 00:56:13;;;;;;;;;;;10.70;79.60;;;;;;5077181;28;19915;-70
2022/04/08 00:58:39;;;;;;;;;;;10.60;79.80;;;;;;5077833;28;20338;-70
2022/04/08 01:01:05;;;;;;;;;;;10.60;79.70;;;;;;5077503;28;19912;-70
2022/04/08 01:03:30;;;;;;;;;;;10.60;79.70;;;;;;5077105;28;19918;-70
2022/04/08 01:05:56;;;;;;;;;;;10.60;80.20;;;;;;5077267;28;19908;-70
2022/04/08 01:08:22;;;;;;;;;;;10.60;80.50;;;;;;5077655;28;19909;-70
2022/04/08 01:10:48;;;;;;;;;;;10.60;80.70;;;;;;5077145;28;19908;-70
2022/04/08 01:13:14;;;;;;;;;;;10.60;80.90;;;;;;5077553;28;20355;-70
2022/04/08 01:15:39;;;;;;;;;;;10.50;80.80;;;;;;5059213;28;20379;-70
2022/04/08 01:18:05;;;;;;;;;;;10.50;81.00;;;;;;5077053;28;20283;-70
2022/04/08 01:20:31;;;;;;;;;;;10.50;81.00;;;;;;5077138;28;19908;-70
2022/04/08 01:22:57;;;;;;;;;;;10.50;81.20;;;;;;5077173;28;19908;-70
2022/04/08 01:25:22;;;;;;;;;;;10.50;81.40;;;;;;5076903;28;19919;-70
2022/04/08 01:27:48;;;;;;;;;;;10.50;81.50;;;;;;5076757;28;19909;-70
2022/04/08 01:30:16;;;;;;;;;;;10.50;81.60;;;;;;5079345;28;19909;-70
2022/04/08 01:32:42;;;;;;;;;;;10.50;81.40;;;;;;5080341;28;19908;-70
2022/04/08 01:35:08;;;;;;;;;;;10.50;82.00;;;;;;5080780;28;19908;-70
2022/04/08 01:37:33;;;;;;;;;;;10.40;81.70;;;;;;5080875;28;19908;-70
2022/04/08 01:39:59;;;;;;;;;;;10.40;81.80;;;;;;5080233;28;19976;-70
2022/04/08 01:42:25;;;;;;;;;;;10.40;82.50;;;;;;5080580;28;20007;-71
2022/04/08 01:44:52;;;;;;;;;;;10.40;82.70;;;;;;5080359;28;20375;-70
2022/04/08 01:47:18;;;;;;;;;;;10.40;82.70;;;;;;5080717;28;19916;-70
2022/04/08 01:49:43;;;;;;;;;;;10.40;82.90;;;;;;5080258;28;20021;-70
2022/04/08 01:52:09;;;;;;;;;;;10.40;82.70;;;;;;5080400;28;19962;-70
2022/04/08 01:54:35;;;;;;;;;;;10.40;83.10;;;;;;5080177;28;20390;-70
2022/04/08 01:57:01;;;;;;;;;;;10.30;83.10;;;;;;5080385;28;19908;-70
2022/04/08 01:59:26;;;;;;;;;;;10.30;83.60;;;;;;5080172;28;19908;-70
2022/04/08 02:01:52;;;;;;;;;;;10.30;83.50;;;;;;5080011;28;19916;-70
2022/04/08 02:04:18;;;;;;;;;;;10.30;83.40;;;;;;5061900;28;19974;-70
2022/04/08 02:06:44;;;;;;;;;;;10.30;83.10;;;;;;5061779;28;19909;-70
2022/04/08 02:09:10;;;;;;;;;;;10.30;83.70;;;;;;5079871;28;19956;-70
2022/04/08 02:11:36;;;;;;;;;;;10.30;83.60;;;;;;5078408;28;19909;-70
2022/04/08 02:14:02;;;;;;;;;;;10.20;84.00;;;;;;5079179;28;19940;-70
2022/04/08 02:16:27;;;;;;;;;;;10.30;83.70;;;;;;5061695;28;19908;-71
2022/04/08 02:18:53;;;;;;;;;;;10.30;83.80;;;;;;5079219;28;19915;-70
2022/04/08 02:21:19;;;;;;;;;;;10.30;83.80;;;;;;5079922;28;20643;-70
2022/04/08 02:23:55;;;;;;;;;;;10.20;84.10;;;;;;5079828;28;19962;-70
2022/04/08 02:26:20;;;;;;;;;;;10.20;84.00;;;;;;5079852;28;20372;-72
2022/04/08 02:28:46;;;;;;;;;;;10.20;84.00;;;;;;5077424;28;19915;-70
2022/04/08 02:31:12;;;;;;;;;;;10.20;84.00;;;;;;5077962;28;19952;-70
2022/04/08 02:33:38;;;;;;;;;;;10.20;84.00;;;;;;5078408;28;19912;-70
2022/04/08 02:36:04;;;;;;;;;;;10.20;84.00;;;;;;5079617;28;19921;-70
2022/04/08 02:38:30;;;;;;;;;;;10.20;84.50;;;;;;5079451;28;19913;-70
2022/04/08 02:40:55;;;;;;;;;;;10.20;84.50;;;;;;5078336;28;19912;-70
2022/04/08 02:43:22;;;;;;;;;;;10.20;84.50;;;;;;5079238;28;20304;-70
2022/04/08 02:45:48;;;;;;;;;;;10.20;85.10;;;;;;5079439;28;20391;-70
2022/04/08 02:48:14;;;;;;;;;;;10.20;85.40;;;;;;5079055;28;19932;-70
2022/04/08 02:50:40;;;;;;;;;;;10.20;85.70;;;;;;5079350;28;19966;-70
2022/04/08 02:53:05;;;;;;;;;;;10.20;86.10;;;;;;5061283;28;19916;-70
2022/04/08 02:55:31;;;;;;;;;;;10.20;86.20;;;;;;5079278;28;19909;-70
2022/04/08 02:57:57;;;;;;;;;;;10.20;86.20;;;;;;5079052;28;19908;-70
2022/04/08 03:00:22;;;;;;;;;;;10.20;86.40;;;;;;5079273;28;20283;-70
2022/04/08 03:02:48;;;;;;;;;;;10.20;87.20;;;;;;5078521;28;20069;-70
2022/04/08 03:05:15;;;;;;;;;;;10.10;87.50;;;;;;5079096;28;19919;-70
2022/04/08 03:07:41;;;;;;;;;;;10.10;87.70;;;;;;5078993;28;20460;-70
2022/04/08 03:10:07;;;;;;;;;;;10.10;87.90;;;;;;5078988;28;19909;-70
2022/04/08 03:12:33;;;;;;;;;;;10.10;88.30;;;;;;5078711;28;19962;-70
2022/04/08 03:14:59;;;;;;;;;;;10.10;88.60;;;;;;5078930;28;19908;-70
2022/04/08 03:17:25;;;;;;;;;;;10.10;88.50;;;;;;5065389;28;19915;-70
2022/04/08 03:19:51;;;;;;;;;;;10.10;88.30;;;;;;5078843;28;20003;-70
2022/04/08 03:22:20;;;;;;;;;;;10.10;89.00;;;;;;5060741;28;19957;-70
2022/04/08 03:24:49;;;;;;;;;;;10.00;89.30;;;;;;5078456;28;19920;-70
2022/04/08 03:27:15;;;;;;;;;;;10.00;89.00;;;;;;5076949;28;19987;-70
2022/04/08 03:29:42;;;;;;;;;;;10.00;89.20;;;;;;5078729;28;19944;-70
2022/04/08 03:32:08;;;;;;;;;;;10.00;88.90;;;;;;5078060;28;19999;-70
2022/04/08 03:34:33;;;;;;;;;;;10.00;88.60;;;;;;5078594;28;19950;-70
2022/04/08 03:36:59;;;;;;;;;;;10.00;88.30;;;;;;5078417;28;19909;-70
2022/04/08 03:39:24;;;;;;;;;;;10.00;88.30;;;;;;5060426;28;19915;-70
2022/04/08 03:41:50;;;;;;;;;;;10.00;88.40;;;;;;5078114;28;19909;-70
2022/04/08 03:44:16;;;;;;;;;;;10.00;89.10;;;;;;5060182;28;19912;-70
2022/04/08 03:46:43;;;;;;;;;;;10.10;89.20;;;;;;5077892;28;19909;-70
2022/04/08 03:49:11;;;;;;;;;;;10.10;89.50;;;;;;5060248;28;19921;-70
2022/04/08 03:51:36;;;;;;;;;;;10.10;89.50;;;;;;5047251;28;19962;-70
2022/04/08 03:54:02;;;;;;;;;;;10.10;89.40;;;;;;5077942;28;19916;-70
2022/04/08 03:56:28;;;;;;;;;;;10.10;90.00;;;;;;5060209;28;19942;-70
2022/04/08 03:58:53;;;;;;;;;;;10.10;90.20;;;;;;5078109;28;19913;-70
2022/04/08 04:01:19;;;;;;;;;;;10.00;90.50;;;;;;5078181;28;19908;-70
2022/04/08 04:03:45;;;;;;;;;;;10.00;90.80;;;;;;5059693;28;19919;-70
2022/04/08 04:06:11;;;;;;;;;;;10.00;91.20;;;;;;5078159;28;19909;-71
2022/04/08 04:08:37;;;;;;;;;;;9.90;91.40;;;;;;5077973;28;19915;-70
2022/04/08 04:11:02;;;;;;;;;;;9.90;91.50;;;;;;5059903;28;19908;-70
2022/04/08 04:13:28;;;;;;;;;;;9.80;91.30;;;;;;5059901;28;19998;-73
2022/04/08 04:15:53;;;;;;;;;;;9.80;91.40;;;;;;5059960;28;19908;-73
2022/04/08 04:18:19;;;;;;;;;;;9.80;91.50;;;;;;5059520;28;19957;-73
2022/04/08 04:20:45;;;;;;;;;;;9.80;91.80;;;;;;5077923;28;19912;-74
2022/04/08 04:23:10;;;;;;;;;;;9.70;91.70;;;;;;5059783;28;19965;-73
2022/04/08 04:25:36;;;;;;;;;;;9.70;91.70;;;;;;5064305;28;19913;-73
2022/04/08 04:28:03;;;;;;;;;;;9.70;91.80;;;;;;5077544;28;19909;-70
2022/04/08 04:30:28;;;;;;;;;;;9.70;91.80;;;;;;5077613;28;19908;-71
2022/04/08 04:32:56;;;;;;;;;;;9.70;91.80;;;;;;5059156;28;20371;-70
2022/04/08 04:35:22;;;;;;;;;;;9.70;91.80;;;;;;5077575;28;19977;-70
2022/04/08 04:37:48;;;;;;;;;;;9.70;91.90;;;;;;5077982;28;20291;-70
2022/04/08 04:40:14;;;;;;;;;;;9.70;92.00;;;;;;5077543;28;19909;-71
2022/04/08 04:42:39;;;;;;;;;;;9.70;92.30;;;;;;5077613;28;19916;-70
2022/04/08 04:45:05;;;;;;;;;;;9.70;92.30;;;;;;5077715;28;19912;-71
2022/04/08 04:47:31;;;;;;;;;;;9.60;92.30;;;;;;5059294;28;19909;-71
2022/04/08 04:49:56;;;;;;;;;;;9.60;92.30;;;;;;5077224;28;20389;-71
2022/04/08 04:52:22;;;;;;;;;;;9.60;92.30;;;;;;5077572;28;20003;-71
2022/04/08 04:54:48;;;;;;;;;;;9.60;92.20;;;;;;5077343;28;19916;-70
2022/04/08 04:57:13;;;;;;;;;;;9.70;92.40;;;;;;5077705;28;19909;-71
2022/04/08 04:59:39;;;;;;;;;;;9.60;92.40;;;;;;5046538;28;20029;-71
2022/04/08 05:02:07;;;;;;;;;;;9.60;92.40;;;;;;5076467;28;20228;-73
2022/04/08 05:04:32;;;;;;;;;;;9.70;92.60;;;;;;5079025;28;19913;-70
2022/04/08 05:06:58;;;;;;;;;;;9.60;92.50;;;;;;5081196;28;19908;-69
2022/04/08 05:09:26;;;;;;;;;;;9.70;92.50;;;;;;5081580;28;19914;-70
2022/04/08 05:11:51;;;;;;;;;;;9.70;92.50;;;;;;5080868;28;19909;-69
2022/04/08 05:14:17;;;;;;;;;;;9.70;92.50;;;;;;5081247;28;19915;-69
2022/04/08 05:16:43;;;;;;;;;;;9.70;92.40;;;;;;5080457;28;20264;-69
2022/04/08 05:19:09;;;;;;;;;;;9.70;92.40;;;;;;5062608;28;19927;-69
2022/04/08 05:21:35;;;;;;;;;;;9.70;92.30;;;;;;5080175;28;19952;-70
2022/04/08 05:24:00;;;;;;;;;;;9.70;92.50;;;;;;5080053;28;19966;-69
2022/04/08 05:26:26;;;;;;;;;;;9.80;92.60;;;;;;5079729;28;19920;-69
2022/04/08 05:28:52;;;;;;;;;;;9.80;93.00;;;;;;5079998;28;19908;-69
2022/04/08 05:31:17;;;;;;;;;;;9.80;93.00;;;;;;5079999;28;19913;-69
2022/04/08 05:33:43;;;;;;;;;;;9.90;93.20;;;;;;5061390;28;19912;-69
2022/04/08 05:36:08;;;;;;;;;;;9.90;93.40;;;;;;5080042;28;19948;-69
2022/04/08 05:38:34;;;;;;;;;;;10.00;93.90;;;;;;5062157;28;19945;-70
2022/04/08 05:41:00;;;;;;;;;;;10.10;94.40;;;;;;5079890;28;19913;-70
2022/04/08 05:43:26;;;;;;;;;;;10.30;95.40;;;;;;5078891;28;19912;-69
2022/04/08 05:45:52;;;;;;;;;;;10.50;96.50;;;;;;5061654;28;19921;-70
2022/04/08 05:48:18;;;;;;;;;;;10.70;97.20;;;;;;5079376;28;19921;-69
2022/04/08 05:50:44;;;;;;;;;;;10.90;97.90;;;;;;5079875;28;19919;-69
2022/04/08 05:53:10;;;;;;;;;;;11.10;98.40;;;;;;5079618;28;20314;-69
2022/04/08 05:55:35;;;;;;;;;;;11.20;98.80;;;;;;5079853;28;19988;-69
2022/04/08 05:58:01;;;;;;;;;;;11.20;99.00;;;;;;5079855;28;19962;-70
2022/04/08 06:00:27;;;;;;;;;;;11.40;99.30;;;;;;5080414;28;19916;-69
2022/04/08 06:02:55;;;;;;;;;;;11.60;99.70;;;;;;5079838;28;19908;-69
2022/04/08 06:05:21;;;;;;;;;;;11.70;99.90;;;;;;5080022;28;19964;-69
2022/04/08 06:07:48;;;;;;;;;;;11.70;99.90;;;;;;5080446;28;19915;-68
2022/04/08 06:10:18;;;;;;;;;;;11.90;99.90;;;;;;5079982;28;20662;-69
2022/04/08 06:12:49;;;;;;;;;;;11.90;99.90;;;;;;5080086;28;19965;-70
2022/04/08 06:15:15;;;;;;;;;;;11.90;99.90;;;;;;5079406;28;19944;-69
2022/04/08 06:17:41;;;;;;;;;;;11.90;99.90;;;;;;5079153;28;19930;-69
2022/04/08 06:20:07;;;;;;;;;;;12.00;99.90;;;;;;5079909;28;19909;-69
2022/04/08 06:22:33;;;;;;;;;;;12.10;99.90;;;;;;5079844;28;19942;-69
2022/04/08 06:24:59;;;;;;;;;;;12.20;99.90;;;;;;5079762;28;19913;-69
2022/04/08 06:27:24;;;;;;;;;;;12.20;99.90;;;;;;5079457;28;19916;-69
2022/04/08 06:29:50;;;;;;;;;;;12.20;99.90;;;;;;5079741;28;19912;-69
2022/04/08 06:32:15;;;;;;;;;;;12.20;99.90;;;;;;5061191;28;19909;-69
2022/04/08 06:34:41;;;;;;;;;;;12.20;99.90;;;;;;5079494;28;20372;-69
2022/04/08 06:37:08;;;;;;;;;;;12.20;99.90;;;;;;5079721;28;19916;-69
2022/04/08 06:39:34;;;;;;;;;;;12.30;99.90;;;;;;5079174;28;19909;-69
2022/04/08 06:41:59;;;;;;;;;;;12.30;99.90;;;;;;5079570;28;19970;-69
2022/04/08 06:44:25;;;;;;;;;;;12.30;99.90;;;;;;5079271;28;19919;-68
2022/04/08 06:46:50;;;;;;;;;;;12.40;99.90;;;;;;5079367;28;19912;-68
2022/04/08 06:49:19;;;;;;;;;;;12.40;99.90;;;;;;5079264;28;19932;-69
2022/04/08 06:51:45;;;;;;;;;;;12.40;99.60;;;;;;5061355;28;19909;-69
2022/04/08 06:54:10;;;;;;;;;;;12.30;99.40;;;;;;5079132;28;19908;-69
2022/04/08 06:56:36;;;;;;;;;;;12.30;99.20;;;;;;5079258;28;19909;-69
2022/04/08 06:59:02;;;;;;;;;;;12.30;98.90;;;;;;5079131;28;20437;-69
2022/04/08 07:01:29;;;;;;;;;;;12.30;98.90;;;;;;5078987;28;19974;-69
2022/04/08 07:03:55;;;;;;;;;;;12.20;98.80;;;;;;5078840;28;19918;-69
2022/04/08 07:06:21;;;;;;;;;;;12.20;98.80;;;;;;5079101;28;20003;-69
2022/04/08 07:08:47;;;;;;;;;;;12.20;98.80;;;;;;5079033;28;19995;-69
2022/04/08 07:11:13;;;;;;;;;;;12.20;99.10;;;;;;5078879;28;19943;-69
2022/04/08 07:13:41;;;;;;;;;;;12.20;98.90;;;;;;5078823;28;19999;-68
2022/04/08 07:16:09;;;;;;;;;;;12.20;99.10;;;;;;5078836;28;19908;-69
2022/04/08 07:18:35;;;;;;;;;;;12.20;99.30;;;;;;5078478;28;20007;-69
2022/04/08 07:21:01;;;;;;;;;;;12.20;99.10;;;;;;5060781;28;19997;-68
2022/04/08 07:23:27;;;;;;;;;;;12.20;98.90;;;;;;5078499;28;20003;-69
2022/04/08 07:25:52;;;;;;;;;;;12.20;98.70;;;;;;5078657;28;19958;-69
2022/04/08 07:28:18;;;;;;;;;;;12.10;98.40;;;;;;5077628;28;19909;-69
2022/04/08 07:30:43;;;;;;;;;;;12.10;98.30;;;;;;5078684;28;19931;-69
2022/04/08 07:33:09;;;;;;;;;;;12.20;98.40;;;;;;5077831;28;19913;-69
2022/04/08 07:35:37;;;;;;;;;;;12.20;98.30;;;;;;5078549;28;19915;-68
2022/04/08 07:38:05;;;;;;;;;;;12.20;98.40;;;;;;5078449;28;20387;-69
2022/04/08 07:40:31;;;;;;;;;;;12.10;98.40;;;;;;5078119;28;19915;-69
2022/04/08 07:42:57;;;;;;;;;;;12.10;98.40;;;;;;5078239;28;19908;-69
2022/04/08 07:45:27;;;;;;;;;;;12.10;98.50;;;;;;5078191;28;19912;-69
2022/04/08 07:47:58;;;;;;;;;;;12.10;98.50;;;;;;5077881;28;19908;-69
2022/04/08 07:50:25;;;;;;;;;;;12.10;98.50;;;;;;5078026;28;19966;-69
2022/04/08 07:52:50;;;;;;;;;;;12.10;98.90;;;;;;5077980;28;19920;-69
2022/04/08 07:55:20;;;;;;;;;;;12.10;98.80;;;;;;5078079;28;20364;-69
2022/04/08 07:57:51;;;;;;;;;;;12.00;98.80;;;;;;5078008;28;19908;-69
2022/04/08 08:00:21;;;;;;;;;;;12.10;98.90;;;;;;5078118;28;19909;-69
2022/04/08 08:02:47;;;;;;;;;;;12.10;99.10;;;;;;5077517;28;19909;-69
2022/04/08 08:05:13;;;;;;;;;;;12.10;99.20;;;;;;5078102;28;19963;-69
2022/04/08 08:07:53;;;;;;;;;;;12.10;99.50;;;;;;5046686;28;19908;-69
2022/04/08 08:10:21;;;;;;;;;;;12.10;99.40;;;;;;5077637;28;20401;-68
2022/04/08 08:12:47;;;;;;;;;;;12.10;99.20;;;;;;5077937;28;19908;-68
2022/04/08 08:15:13;;;;;;;;;;;12.10;99.00;;;;;;5077835;28;19915;-69
2022/04/08 08:17:39;;;;;;;;;;;12.00;99.00;;;;;;5077807;28;19951;-68
2022/04/08 08:20:06;;;;;;;;;;;12.20;99.70;;;;;;5077667;28;19908;-68
2022/04/08 08:22:32;;;;;;;;;;;12.20;99.90;;;;;;5077887;28;19908;-69
2022/04/08 08:24:58;;;;;;;;;;;12.30;99.90;;;;;;5077481;28;20341;-68
2022/04/08 08:27:24;;;;;;;;;;;12.30;99.90;;;;;;5076674;28;20291;-68
2022/04/08 08:29:49;;;;;;;;;;;12.40;99.90;;;;;;5077706;28;19969;-68
2022/04/08 08:32:15;;;;;;;;;;;12.40;99.90;;;;;;5077335;28;20413;-68
2022/04/08 08:34:40;;;;;;;;;;;12.40;99.90;;;;;;5077539;28;19939;-68
2022/04/08 08:37:06;;;;;;;;;;;12.50;99.90;;;;;;5077872;28;19909;-68
2022/04/08 08:39:33;;;;;;;;;;;12.50;99.90;;;;;;5078728;28;19990;-68
2022/04/08 08:41:59;;;;;;;;;;;12.70;99.90;;;;;;5082031;28;20452;-68
2022/04/08 08:44:24;;;;;;;;;;;13.00;99.90;;;;;;5081464;28;19918;-68
2022/04/08 08:46:51;;;;;;;;;;;13.50;99.90;;;;;;5081565;28;19999;-68
2022/04/08 08:49:19;;;;;;;;;;;13.70;98.40;;;;;;5081531;28;20003;-68
2022/04/08 08:51:48;;;;;;;;;;;13.80;97.70;;;;;;5081650;28;19940;-68
2022/04/08 08:54:14;;;;;;;;;;;13.90;97.20;;;;;;5081368;28;19909;-68
2022/04/08 08:56:40;;;;;;;;;;;14.00;96.70;;;;;;5081577;28;20376;-68
2022/04/08 08:59:05;;;;;;;;;;;14.00;96.10;;;;;;5081485;28;19908;-68
2022/04/08 09:01:31;;;;;;;;;;;14.10;95.60;;;;;;5081344;28;19908;-68
2022/04/08 09:03:56;;;;;;;;;;;14.00;95.10;;;;;;5081218;28;19912;-68
2022/04/08 09:06:22;;;;;;;;;;;13.90;94.90;;;;;;5081476;28;20626;-68
2022/04/08 09:08:56;;;;;;;;;;;13.80;95.40;;;;;;5081282;28;20282;-68
2022/04/08 09:11:28;;;;;;;;;;;13.70;95.70;;;;;;5081350;28;19909;-68
2022/04/08 09:13:59;;;;;;;;;;;13.60;95.80;;;;;;5081072;28;19909;-68
2022/04/08 09:16:29;;;;;;;;;;;13.60;95.80;;;;;;5080993;28;19935;-69
2022/04/08 09:18:55;;;;;;;;;;;13.50;95.80;;;;;;5080914;28;20406;-68
2022/04/08 09:21:24;;;;;;;;;;;13.50;96.10;;;;;;5081244;28;19908;-68
2022/04/08 09:23:51;;;;;;;;;;;13.50;96.10;;;;;;5080771;28;19986;-74
2022/04/08 09:26:16;;;;;;;;;;;13.40;96.20;;;;;;5079464;28;20291;-72
2022/04/08 09:28:42;;;;;;;;;;;13.40;96.60;;;;;;5065848;28;19909;-70
2022/04/08 09:31:17;;;;;;;;;;;13.30;96.60;;;;;;5079949;28;19909;-71
2022/04/08 09:33:50;;;;;;;;;;;13.20;96.80;;;;;;5080270;28;19908;-70
2022/04/08 09:36:32;;;;;;;;;;;13.20;97.20;;;;;;5079915;28;19908;-71
2022/04/08 09:38:58;;;;;;;;;;;13.10;97.10;;;;;;5080487;28;19909;-70
2022/04/08 09:41:56;;;;;;;;;;;13.10;97.00;;;;;;5080160;28;19909;-71
2022/04/08 09:44:24;;;;;;;;;;;13.10;97.10;;;;;;5013882;28;19913;-72
2022/04/08 09:46:50;;;;;;;;;;;13.10;97.30;;;;;;5080372;28;20498;-72
2022/04/08 09:49:15;;;;;;;;;;;13.10;97.30;;;;;;5058785;28;19928;-72
2022/04/08 09:51:41;;;;;;;;;;;13.10;97.10;;;;;;5060143;28;19909;-72
2022/04/08 09:54:12;;;;;;;;;;;13.10;96.80;;;;;;5060085;28;19932;-71
2022/04/08 09:56:38;;;;;;;;;;;13.10;97.10;;;;;;5060069;28;20291;-72
2022/04/08 09:59:05;;;;;;;;;;;13.10;97.30;;;;;;5060315;28;19919;-71
2022/04/08 10:01:31;;;;;;;;;;;13.40;97.70;;;;;;5057320;28;19999;-71
2022/04/08 10:03:56;;;;;;;;;;;13.80;97.50;;;;;;5059987;28;19963;-73
2022/04/08 10:06:23;;;;;;;;;;;14.30;97.00;;;;;;5058510;28;19959;-76
2022/04/08 10:08:49;;;;;;;;;;;15.10;96.00;;;;;;5059945;28;20328;-74
2022/04/08 10:11:18;;;;;;;;;;;15.60;93.80;;;;;;5059446;28;19916;-75
2022/04/08 10:14:03;;;;;;;;;;;16.20;92.00;;;;;;5059737;28;19916;-74
2022/04/08 10:16:30;;;;;;;;;;;16.70;90.60;;;;;;5059804;28;20296;-74
2022/04/08 10:18:55;;;;;;;;;;;16.80;88.00;;;;;;5059741;28;19923;-74
2022/04/08 10:21:21;;;;;;;;;;;16.90;88.60;;;;;;5059818;28;19976;-73
2022/04/08 10:23:48;;;;;;;;;;;17.00;86.10;;;;;;5065453;28;19912;-74
2022/04/08 10:26:24;;;;;;;;;;;16.80;84.20;;;;;;5069790;28;19975;-76
2022/04/08 10:28:50;;;;;;;;;;;16.60;85.40;;;;;;5058469;28;19944;-76
2022/04/08 10:31:17;;;;;;;;;;;16.30;86.70;;;;;;5058396;28;19917;-78
2022/04/08 10:33:47;;;;;;;;;;;16.20;87.40;;;;;;5058170;28;19953;-78
2022/04/08 10:36:13;;;;;;;;;;;16.10;87.40;;;;;;5058188;28;19909;-76
2022/04/08 10:38:38;;;;;;;;;;;16.00;86.70;;;;;;5059526;28;19916;-77
2022/04/08 10:41:10;;;;;;;;;;;16.00;87.30;;;;;;5058947;28;20486;-76
2022/04/08 10:43:43;;;;;;;;;;;16.00;86.30;;;;;;5054738;28;19912;-78
2022/04/08 10:46:08;;;;;;;;;;;16.00;86.50;;;;;;5059045;28;19971;-77
2022/04/08 10:48:34;;;;;;;;;;;16.10;86.80;;;;;;5054439;28;19920;-76
2022/04/08 10:51:04;;;;;;;;;;;16.20;85.70;;;;;;5074305;28;19961;-76
2022/04/08 10:53:32;;;;;;;;;;;16.30;84.70;;;;;;5079081;28;20390;-75
2022/04/08 10:56:08;;;;;;;;;;;16.60;87.00;;;;;;5078972;28;19916;-76
2022/04/08 10:58:34;;;;;;;;;;;16.90;84.30;;;;;;5079229;28;19908;-74
2022/04/08 11:01:00;;;;;;;;;;;17.20;82.80;;;;;;5078897;28;19916;-74
2022/04/08 11:03:27;;;;;;;;;;;17.20;82.60;;;;;;5078153;28;19908;-74
2022/04/08 11:05:53;;;;;;;;;;;17.10;81.90;;;;;;5078942;28;20021;-75
2022/04/08 11:08:18;;;;;;;;;;;17.00;82.90;;;;;;5078891;28;19912;-76
2022/04/08 11:10:44;;;;;;;;;;;17.10;83.30;;;;;;5060717;28;20345;-76
2022/04/08 11:13:13;;;;;;;;;;;17.40;83.30;;;;;;5079000;28;19913;-76
2022/04/08 11:15:42;;;;;;;;;;;17.80;83.00;;;;;;5078680;28;19916;-76
2022/04/08 11:18:08;;;;;;;;;;;18.10;82.10;;;;;;5060610;28;19908;-76
2022/04/08 11:20:34;;;;;;;;;;;18.30;80.90;;;;;;5078587;28;19951;-76
2022/04/08 11:23:00;;;;;;;;;;;18.50;77.90;;;;;;5078961;28;19908;-75
2022/04/08 11:25:27;;;;;;;;;;;18.60;76.10;;;;;;5078535;28;19912;-76
2022/04/08 11:27:59;;;;;;;;;;;18.60;75.90;;;;;;5078146;28;20843;-74
2022/04/08 11:30:25;;;;;;;;;;;18.60;75.10;;;;;;5078425;28;19916;-76
2022/04/08 11:32:51;;;;;;;;;;;18.60;74.80;;;;;;5078195;28;20331;-76
2022/04/08 11:35:17;;;;;;;;;;;18.40;74.30;;;;;;5078340;28;19967;-75
2022/04/08 11:37:43;;;;;;;;;;;18.20;75.60;;;;;;5078717;28;19909;-76
2022/04/08 11:40:09;;;;;;;;;;;18.10;75.70;;;;;;5077892;28;19915;-76
2022/04/08 11:42:34;;;;;;;;;;;18.10;74.60;;;;;;5078539;28;19908;-76
2022/04/08 11:45:01;;;;;;;;;;;18.40;76.60;;;;;;5078025;28;19916;-76
2022/04/08 11:47:36;;;;;;;;;;;18.80;74.80;;;;;;5060286;28;19914;-77
2022/04/08 11:50:06;;;;;;;;;;;19.10;72.70;;;;;;5059998;28;20323;-76
2022/04/08 11:52:32;;;;;;;;;;;19.30;72.20;;;;;;5078245;28;19909;-76
2022/04/08 11:55:05;;;;;;;;;;;19.30;71.70;;;;;;5078292;28;20455;-76
2022/04/08 11:57:32;;;;;;;;;;;19.10;72.10;;;;;;5077968;28;19908;-76
2022/04/08 11:59:58;;;;;;;;;;;19.10;73.40;;;;;;5078316;28;19909;-76
2022/04/08 12:02:24;;;;;;;;;;;19.00;72.70;;;;;;5077819;28;20291;-77
2022/04/08 12:04:50;;;;;;;;;;;18.90;73.20;;;;;;5078011;28;19912;-77
2022/04/08 12:07:28;;;;;;;;;;;18.70;73.20;;;;;;5077959;28;19916;-77
2022/04/08 12:09:58;;;;;;;;;;;18.60;73.60;;;;;;5078015;28;20264;-77
2022/04/08 12:12:24;;;;;;;;;;;18.70;74.70;;;;;;5077689;28;19908;-77
2022/04/08 12:14:50;;;;;;;;;;;18.60;75.20;;;;;;5078030;28;19912;-77
2022/04/08 12:17:16;;;;;;;;;;;18.50;74.90;;;;;;5077433;28;19916;-77
2022/04/08 12:19:42;;;;;;;;;;;18.30;75.70;;;;;;5078041;28;19908;-77
2022/04/08 12:22:08;;;;;;;;;;;18.10;77.60;;;;;;5077682;28;19912;-77
2022/04/08 12:24:34;;;;;;;;;;;18.20;78.80;;;;;;5059983;28;19935;-77
2022/04/08 12:26:59;;;;;;;;;;;18.30;78.60;;;;;;5077496;28;19912;-77
2022/04/08 12:29:29;;;;;;;;;;;18.50;77.90;;;;;;5059616;28;19952;-77
2022/04/08 12:31:55;;;;;;;;;;;18.70;76.30;;;;;;5077264;28;19908;-77
2022/04/08 12:34:21;;;;;;;;;;;18.60;75.00;;;;;;5077585;28;19916;-77
2022/04/08 12:36:47;;;;;;;;;;;18.60;75.60;;;;;;5077529;28;19908;-77
2022/04/08 12:39:13;;;;;;;;;;;18.70;76.70;;;;;;5059569;28;20336;-77
2022/04/08 12:41:43;;;;;;;;;;;18.70;76.30;;;;;;5059463;28;19932;-77
2022/04/08 12:44:09;;;;;;;;;;;18.70;76.90;;;;;;5077602;28;19971;-77
2022/04/08 12:46:35;;;;;;;;;;;18.90;77.50;;;;;;5077439;28;20378;-76
2022/04/08 12:49:02;;;;;;;;;;;19.00;74.60;;;;;;5077423;28;19929;-77
2022/04/08 12:51:28;;;;;;;;;;;19.20;75.00;;;;;;5077347;28;19944;-75
2022/04/08 12:53:54;;;;;;;;;;;19.30;75.00;;;;;;5077646;28;19915;-77
2022/04/08 12:56:19;;;;;;;;;;;19.30;74.00;;;;;;5077347;28;19959;-76
2022/04/08 12:58:45;;;;;;;;;;;19.30;73.70;;;;;;5059999;28;19955;-77
2022/04/08 13:01:11;;;;;;;;;;;19.20;72.50;;;;;;5077039;28;19908;-76
2022/04/08 13:03:38;;;;;;;;;;;19.20;72.60;;;;;;5059485;28;19909;-77
2022/04/08 13:06:03;;;;;;;;;;;19.10;72.90;;;;;;5077263;28;19995;-77
2022/04/08 13:08:30;;;;;;;;;;;19.00;74.10;;;;;;5059627;28;19989;-74
2022/04/08 13:10:55;;;;;;;;;;;19.10;74.50;;;;;;5077087;28;19915;-74
2022/04/08 13:13:21;;;;;;;;;;;19.00;73.60;;;;;;5077371;28;19909;-74
2022/04/08 13:15:47;;;;;;;;;;;18.90;74.60;;;;;;5077150;28;19913;-74
2022/04/08 13:18:12;;;;;;;;;;;18.60;73.50;;;;;;5077104;28;19915;-74
2022/04/08 13:20:38;;;;;;;;;;;18.30;73.00;;;;;;5077106;28;19908;-74
2022/04/08 13:23:04;;;;;;;;;;;17.80;72.70;;;;;;5077346;28;19913;-74
2022/04/08 13:25:31;;;;;;;;;;;17.50;73.20;;;;;;5078454;28;19920;-74
2022/04/08 13:27:57;;;;;;;;;;;17.20;73.10;;;;;;5080493;28;19909;-74
2022/04/08 13:30:22;;;;;;;;;;;16.90;73.80;;;;;;5080683;28;19909;-74
2022/04/08 13:32:48;;;;;;;;;;;16.70;74.40;;;;;;5080499;28;19908;-74
2022/04/08 13:35:14;;;;;;;;;;;16.40;74.20;;;;;;5080582;28;19915;-74
2022/04/08 13:37:40;;;;;;;;;;;16.20;73.90;;;;;;5062755;28;19919;-74
2022/04/08 13:40:06;;;;;;;;;;;16.00;74.00;;;;;;5080269;28;19936;-75
2022/04/08 13:42:32;;;;;;;;;;;15.90;74.10;;;;;;5080877;28;19954;-74
2022/04/08 13:44:58;;;;;;;;;;;15.70;73.90;;;;;;5080365;28;20003;-74
2022/04/08 13:47:23;;;;;;;;;;;15.60;73.60;;;;;;5062605;28;19908;-74
2022/04/08 13:49:49;;;;;;;;;;;15.30;72.80;;;;;;5080250;28;20391;-73
2022/04/08 13:52:15;;;;;;;;;;;15.10;73.40;;;;;;5080450;28;19909;-73
2022/04/08 13:54:41;;;;;;;;;;;14.90;73.70;;;;;;5080173;28;20422;-74
2022/04/08 13:57:06;;;;;;;;;;;14.70;74.20;;;;;;5062717;28;19947;-74
2022/04/08 13:59:32;;;;;;;;;;;14.50;74.60;;;;;;5080170;28;19916;-74
2022/04/08 14:01:58;;;;;;;;;;;14.40;74.90;;;;;;5080057;28;19924;-74
2022/04/08 14:04:23;;;;;;;;;;;14.20;75.10;;;;;;5080135;28;19942;-73
2022/04/08 14:06:49;;;;;;;;;;;14.10;75.30;;;;;;5080330;28;19908;-74
2022/04/08 14:09:15;;;;;;;;;;;14.00;76.30;;;;;;5079951;28;19909;-74
2022/04/08 14:11:40;;;;;;;;;;;14.00;76.50;;;;;;5080455;28;19913;-74
2022/04/08 14:14:06;;;;;;;;;;;14.00;76.10;;;;;;5066614;28;20356;-74